メインページ
METAR-TAF:

METAR-TAF

空港 :

旭川空港

旭川, 日本

緯度: 43-40N, 経度: 142-27E, 海抜: 208m

現時点の気象観測

当レポートは22分前の07:00(UTC)に作成
西の風 6kt、南西から西/北西の間で変化する
気温 25°C
湿度 61%
気圧 1011 hPa
視程10km以上
高度3500ftの雲はほとんどない
千切れ雲あり

METAR: RJEC 200700Z 27006KT 230V300 9999 FEW035 BKN/// 25/17 Q1011

時間: 16:22 (07:22 UTC)

予報

当レポートは2時間13分前の05:09(UTC)に作成
予報は20日の 06時(UTC)から 21日の 12時(UTC)まで有効
西の風 7kt
視程10km以上
高度2000ftの雲はほとんどない
高度4000ftの千切れ雲あり
20日の 06時(UTC)から 20日の 08時(UTC)まで徐々に
南/南西の風 5kt
21日の 09時(UTC)から 21日の 12時(UTC)まで一時的に
視程: 4000m
高度500ftの雲はほとんどない
高度800ftの千切れ雲あり
にわか雨, 靄

TAF: RJEC 200509Z 2006/2112 26007KT 9999 FEW020 BKN040 BECMG 2006/2008 20005KT TEMPO 2109/2112 4000 SHRA BR FEW005 BKN008

4,000以上の空港の気象観測と天気予報(METAR報とTAF報)

利用可能な観測所は地図上に黄色い丸と赤い丸で示す。

丸の上にカーソルを重ねると観測所名を参照できる。

次にクリックすると気象観測と天気予報を参照できる。

マップの切り替え:黒色「×」印の緑ボタンをクリックして拡大、「-」印の緑ボタンをクリックして縮小、緑色の三角印をクリックして隣りの地図に切り替え


METAR-TAF: